Multibeam Report for KRY13_03


Ship Name: Keary
Chief Scientist: Cullen, Sean
Source Organization: Geological Survey of Ireland (GSI)
Start Date: 2013-07-06
End Date: 2013-07-06


View ISO Metadata

Visit the full NCEI Bathymetry Viewer


Multibeam Bathymetry

Cruise Details

Project: INFOMAR
Instrument: Kongsberg EM2040D

Data Quality

Number of Files: 78
Number of Records: 98594
BATHYMETRY DATA Quantity Percentage
Number of Beams 39048981 100%
Number of Good Beams 33555966 85.93%
Number of Zero Beams 0 0%
Number of Flagged Beams 5493015 14.07%
AMPLITUDE DATA Quantity Percentage
Number of Beams 39048981 100%
Number of Good Beams 33555966 85.93%
Number of Zero Beams 0 0%
Number of Flagged Beams 5493015 14.07%
SIDESCAN DATA Quantity Percentage
Number of Pixels 100736000 100%
Number of Good Pixels 39670237 39.38%
Number of Zero Pixels 0 0%
Number of Flagged Pixels 61065763 60.62%

Navigation Totals

Total Time: 4.5794 hours
Total Track Length: 59.327 km
Average Speed: 12.955 km/hr (6.9951 knots)

Cruise Bounds

Northern Extent: 51.472214
Southern Extent: 51.374584
Western Extent: -9.628971
Eastern Extent: -8.245605

Limits

Minimum Sonar Depth 0.5958 Maximum Sonar Depth 3.6941
Minimum Altitude 1.0676 Maximum Altitude 135.1433
Minimum Depth 2.0856 Maximum Depth 137.443
Minimum Amplitude 0 Maximum Amplitude 38
Minimum Sidescan 0 Maximum Sidescan 38.76

File Information

Full Resolution Bathymetry as collected (raw): 75

Files File Size Description
0000_20130705_102110_Keary.all.mb58.gz 46.96MB Kongsberg multibeam vendor format
0001_20130705_102805_Keary.all.mb58.gz 29.60MB Kongsberg multibeam vendor format
0002_20130705_120026_Keary.all.mb58.gz 39.94MB Kongsberg multibeam vendor format
0003_20130705_120758_Keary.all.mb58.gz 29.46MB Kongsberg multibeam vendor format
0004_20130705_122134_Keary.all.mb58.gz 30.04MB Kongsberg multibeam vendor format
0005_20130705_123354_Keary.all.mb58.gz 29.75MB Kongsberg multibeam vendor format
0006_20130705_124347_Keary.all.mb58.gz 16.53MB Kongsberg multibeam vendor format
0007_20130705_124751_Keary.all.mb58.gz 14.12MB Kongsberg multibeam vendor format
0008_20130705_125134_Keary.all.mb58.gz 15.63MB Kongsberg multibeam vendor format
0009_20130705_133413_Keary.all.mb58.gz 43.43MB Kongsberg multibeam vendor format
0010_20130705_134307_Keary.all.mb58.gz 36.18MB Kongsberg multibeam vendor format
0011_20130705_134952_Keary.all.mb58.gz 39.47MB Kongsberg multibeam vendor format
0012_20130705_135917_Keary.all.mb58.gz 15.30MB Kongsberg multibeam vendor format
0013_20130705_140306_Keary.all.mb58.gz 17.63MB Kongsberg multibeam vendor format
0014_20130705_140638_Keary.all.mb58.gz 15.79MB Kongsberg multibeam vendor format
0015_20130705_141338_Keary.all.mb58.gz 42.54MB Kongsberg multibeam vendor format
0016_20130705_142221_Keary.all.mb58.gz 15.26MB Kongsberg multibeam vendor format
0017_20130705_142945_Keary.all.mb58.gz 32.91MB Kongsberg multibeam vendor format
0018_20130705_144325_Keary.all.mb58.gz 18.38MB Kongsberg multibeam vendor format
0019_20130705_144639_Keary.all.mb58.gz 15.54MB Kongsberg multibeam vendor format
0020_20130705_144940_Keary.all.mb58.gz 12.67MB Kongsberg multibeam vendor format
0021_20130705_145156_Keary.all.mb58.gz 9.19MB Kongsberg multibeam vendor format
0022_20130705_145337_Keary.all.mb58.gz 7.85MB Kongsberg multibeam vendor format
0023_20130705_145512_Keary.all.mb58.gz 10.14MB Kongsberg multibeam vendor format
0024_20130705_145717_Keary.all.mb58.gz 7.45MB Kongsberg multibeam vendor format
0025_20130705_145855_Keary.all.mb58.gz 5.17MB Kongsberg multibeam vendor format
0026_20130705_150347_Keary.all.mb58.gz 8.40MB Kongsberg multibeam vendor format
0027_20130705_150527_Keary.all.mb58.gz 5.14MB Kongsberg multibeam vendor format
0028_20130705_150631_Keary.all.mb58.gz 4.93MB Kongsberg multibeam vendor format
0029_20130705_150751_Keary.all.mb58.gz 7.95MB Kongsberg multibeam vendor format
0030_20130705_150932_Keary.all.mb58.gz 2.98MB Kongsberg multibeam vendor format
0031_20130705_151027_Keary.all.mb58.gz 6.16MB Kongsberg multibeam vendor format
0032_20130705_151200_Keary.all.mb58.gz 10.34MB Kongsberg multibeam vendor format
0033_20130705_151437_Keary.all.mb58.gz 40.15MB Kongsberg multibeam vendor format
0034_20130705_152106_Keary.all.mb58.gz 8.80MB Kongsberg multibeam vendor format
0035_20130705_152244_Keary.all.mb58.gz 11.04MB Kongsberg multibeam vendor format
0036_20130705_152438_Keary.all.mb58.gz 12.61MB Kongsberg multibeam vendor format
0037_20130705_152719_Keary.all.mb58.gz 11.85MB Kongsberg multibeam vendor format
0038_20130705_152904_Keary.all.mb58.gz 6.87MB Kongsberg multibeam vendor format
0039_20130705_153018_Keary.all.mb58.gz 11.32MB Kongsberg multibeam vendor format
0040_20130705_153206_Keary.all.mb58.gz 13.43MB Kongsberg multibeam vendor format
0041_20130705_153405_Keary.all.mb58.gz 13.09MB Kongsberg multibeam vendor format
0042_20130705_153558_Keary.all.mb58.gz 13.76MB Kongsberg multibeam vendor format
0043_20130705_153750_Keary.all.mb58.gz 16.93MB Kongsberg multibeam vendor format
0044_20130705_154034_Keary.all.mb58.gz 16.60MB Kongsberg multibeam vendor format
0045_20130705_154300_Keary.all.mb58.gz 8.43MB Kongsberg multibeam vendor format
0046_20130705_154503_Keary.all.mb58.gz 7.89MB Kongsberg multibeam vendor format
0047_20130705_154736_Keary.all.mb58.gz 15.83MB Kongsberg multibeam vendor format
0048_20130705_154951_Keary.all.mb58.gz 3.84MB Kongsberg multibeam vendor format
0049_20130705_155104_Keary.all.mb58.gz 12.84MB Kongsberg multibeam vendor format
0050_20130705_155253_Keary.all.mb58.gz 6.31MB Kongsberg multibeam vendor format
0051_20130705_155425_Keary.all.mb58.gz 4.17MB Kongsberg multibeam vendor format
0052_20130705_155558_Keary.all.mb58.gz 2.65MB Kongsberg multibeam vendor format
0053_20130705_160024_Keary.all.mb58.gz 32.03MB Kongsberg multibeam vendor format
0054_20130705_160417_Keary.all.mb58.gz 40.45MB Kongsberg multibeam vendor format
0055_20130705_160844_Keary.all.mb58.gz 39.83MB Kongsberg multibeam vendor format
0056_20130705_161735_Keary.all.mb58.gz 22.14MB Kongsberg multibeam vendor format
0057_20130705_162436_Keary.all.mb58.gz 33.97MB Kongsberg multibeam vendor format
0058_20130705_180759_Keary.all.mb58.gz 13.02MB Kongsberg multibeam vendor format
0059_20130705_181303_Keary.all.mb58.gz 14.39MB Kongsberg multibeam vendor format
0060_20130706_134857_Keary.all.mb58.gz 264.97MB Kongsberg multibeam vendor format
0061_20130706_141442_Keary.all.mb58.gz 184.41MB Kongsberg multibeam vendor format
0062_20130706_142948_Keary.all.mb58.gz 230.62MB Kongsberg multibeam vendor format
0063_20130706_144722_Keary.all.mb58.gz 132.69MB Kongsberg multibeam vendor format
0064_20130706_150120_Keary.all.mb58.gz 147.73MB Kongsberg multibeam vendor format
0065_20130706_151349_Keary.all.mb58.gz 116.33MB Kongsberg multibeam vendor format
0066_20130706_152329_Keary.all.mb58.gz 69.30MB Kongsberg multibeam vendor format
0067_20130706_153200_Keary.all.mb58.gz 34.81MB Kongsberg multibeam vendor format
0068_20130706_153625_Keary.all.mb58.gz 51.90MB Kongsberg multibeam vendor format
0069_20130706_154014_Keary.all.mb58.gz 48.61MB Kongsberg multibeam vendor format
0070_20130706_154344_Keary.all.mb58.gz 36.74MB Kongsberg multibeam vendor format
0071_20130706_154657_Keary.all.mb58.gz 126.37MB Kongsberg multibeam vendor format
0072_20130706_160035_Keary.all.mb58.gz 25.08MB Kongsberg multibeam vendor format
0073_20130706_160755_Keary.all.mb58.gz 150.42MB Kongsberg multibeam vendor format
0074_20130706_162222_Keary.all.mb58.gz 76.12MB Kongsberg multibeam vendor format

Metadata Files: 1

Files File Size Description
KRY13_03_Multibeam.xml NGDC created ISO metadata

Ancillary Files: 1

Files File Size Description
asvp.tar.gz 13.9KB Sound Speed Profiles (SSP or SVP)

Water Column Sonar Data

Water Column Sonar Data Available: WCSD Map Viewer